首页
METAR-TAF:

METAR-TAF

机场 :

伯恩茅斯, 英格兰

纬度: 50-47N, 经度: 001-50W, 海拔: 11米

当前天气观测

该预报发布于43分钟前的08:20 UTC
风速3节,风向多变
温度 10°C
湿度 100%
气压 1006 hPa
能见度10公里或以上
散云层高于1700英尺
多云层高于2800英尺

METAR: EGHH 170820Z VRB03KT 9999 SCT017 BKN028 10/10 Q1006

时间: 10:03 (09:03 UTC)

预报

该预报发布于56分钟前的08:07 UTC
预报有效从17日的 09点(UTC)到 17日的 18点(UTC)
风速5节,风向
能见度10公里或以上
少量云层高于3000英尺
短暂存在
从 17日的 09点(UTC)到 17日的 18点(UTC)
风速15节,风向南转西南,有时为25节阵风
能見度: 7000
阵雨
几率 30% :
短暂存在
从 17日的 09点(UTC)到 17日的 18点(UTC)
能見度: 4000
多云层高于1400英尺
大阵雨

TAF: EGHH 170807Z 1709/1718 19005KT 9999 FEW030 TEMPO 1709/1718 20015G25KT 7000 SHRA PROB30 TEMPO 1709/1718 4000 +SHRA BKN014

超过4000个机场的气象观测和天气预报(METAR&TAF报告)。

可查询的气象台以黄色和红色小点在地图上表示。

将鼠标移到小点上方,可查看气象台名称。

然后点击查看天气观测和预报。

如需切换地图:点击带黑十字的绿色按钮放大地图;点击带横线的绿色按钮缩小地图;或者点击绿色箭头查看邻近地区的地图。


METAR-TAF: